sensor_id;sensor_type;location;lat;lon;timestamp;pressure;altitude;pressure_sealevel;temperature;humidity
5703;BME280;2876;51.738;10.050;2023-04-01T00:02:29;97289.22;;;10.71;92.28
5703;BME280;2876;51.738;10.050;2023-04-01T00:08:31;97293.47;;;10.67;93.15
5703;BME280;2876;51.738;10.050;2023-04-01T00:14:33;97285.16;;;10.90;92.52
5703;BME280;2876;51.738;10.050;2023-04-01T00:20:38;97289.34;;;10.81;93.54
5703;BME280;2876;51.738;10.050;2023-04-01T00:26:40;97283.31;;;10.69;94.54
5703;BME280;2876;51.738;10.050;2023-04-01T00:32:44;97288.84;;;10.84;94.26
5703;BME280;2876;51.738;10.050;2023-04-01T00:38:46;97281.75;;;10.51;95.59
5703;BME280;2876;51.738;10.050;2023-04-01T00:44:51;97279.50;;;10.87;94.03
5703;BME280;2876;51.738;10.050;2023-04-01T00:51:07;97274.19;;;10.70;94.70
5703;BME280;2876;51.738;10.050;2023-04-01T00:57:35;97275.72;;;10.61;94.89
5703;BME280;2876;51.738;10.050;2023-04-01T01:03:38;97280.69;;;10.52;95.64
5703;BME280;2876;51.738;10.050;2023-04-01T01:16:52;97282.03;;;10.50;96.40
5703;BME280;2876;51.738;10.050;2023-04-01T01:41:32;97273.00;;;10.83;94.24
5703;BME280;2876;51.738;10.050;2023-04-01T01:47:36;97279.28;;;10.45;95.41
5703;BME280;2876;51.738;10.050;2023-04-01T01:53:39;97280.81;;;10.62;94.93
5703;BME280;2876;51.738;10.050;2023-04-01T01:59:43;97282.13;;;10.38;95.59
5703;BME280;2876;51.738;10.050;2023-04-01T02:05:49;97275.91;;;10.54;95.35
5703;BME280;2876;51.738;10.050;2023-04-01T02:11:53;97284.97;;;10.75;93.79
5703;BME280;2876;51.738;10.050;2023-04-01T02:17:56;97284.81;;;10.60;94.07
5703;BME280;2876;51.738;10.050;2023-04-01T02:24:02;97281.28;;;10.54;94.08
5703;BME280;2876;51.738;10.050;2023-04-01T02:30:07;97278.03;;;10.52;94.20
5703;BME280;2876;51.738;10.050;2023-04-01T02:36:14;97281.59;;;10.36;94.69
5703;BME280;2876;51.738;10.050;2023-04-01T02:42:16;97281.38;;;10.43;93.86
5703;BME280;2876;51.738;10.050;2023-04-01T02:48:18;97288.69;;;10.47;94.73
5703;BME280;2876;51.738;10.050;2023-04-01T02:54:20;97289.78;;;10.29;95.20
5703;BME280;2876;51.738;10.050;2023-04-01T03:00:22;97283.19;;;10.37;95.22
5703;BME280;2876;51.738;10.050;2023-04-01T03:06:24;97290.38;;;10.31;95.30
5703;BME280;2876;51.738;10.050;2023-04-01T03:12:26;97296.53;;;10.32;95.21
5703;BME280;2876;51.738;10.050;2023-04-01T03:18:28;97285.25;;;10.30;95.66
5703;BME280;2876;51.738;10.050;2023-04-01T03:24:30;97288.84;;;10.19;96.27
5703;BME280;2876;51.738;10.050;2023-04-01T03:30:32;97292.78;;;10.33;96.23
5703;BME280;2876;51.738;10.050;2023-04-01T03:36:35;97291.19;;;10.15;96.38
5703;BME280;2876;51.738;10.050;2023-04-01T03:42:37;97294.59;;;10.27;96.49
5703;BME280;2876;51.738;10.050;2023-04-01T03:48:39;97294.25;;;10.24;96.42
5703;BME280;2876;51.738;10.050;2023-04-01T03:54:41;97295.03;;;10.41;96.21
5703;BME280;2876;51.738;10.050;2023-04-01T04:00:43;97293.78;;;10.49;95.42
5703;BME280;2876;51.738;10.050;2023-04-01T04:06:45;97294.59;;;10.27;95.52
5703;BME280;2876;51.738;10.050;2023-04-01T04:12:47;97295.16;;;10.12;96.15
5703;BME280;2876;51.738;10.050;2023-04-01T04:18:50;97297.03;;;10.29;96.04
5703;BME280;2876;51.738;10.050;2023-04-01T04:24:53;97304.84;;;9.97;97.30
5703;BME280;2876;51.738;10.050;2023-04-01T04:30:55;97310.88;;;10.04;96.98
5703;BME280;2876;51.738;10.050;2023-04-01T04:36:57;97308.06;;;10.32;96.83
5703;BME280;2876;51.738;10.050;2023-04-01T04:42:59;97315.09;;;10.38;96.02
5703;BME280;2876;51.738;10.050;2023-04-01T04:49:01;97309.94;;;10.15;96.93
5703;BME280;2876;51.738;10.050;2023-04-01T04:55:03;97311.22;;;10.29;96.06
5703;BME280;2876;51.738;10.050;2023-04-01T05:01:15;97324.81;;;10.06;96.46
5703;BME280;2876;51.738;10.050;2023-04-01T05:07:17;97324.75;;;10.01;97.02
5703;BME280;2876;51.738;10.050;2023-04-01T05:13:19;97330.75;;;9.91;97.29
5703;BME280;2876;51.738;10.050;2023-04-01T05:19:21;97331.84;;;10.12;97.16
5703;BME280;2876;51.738;10.050;2023-04-01T05:25:23;97327.34;;;9.96;97.78
5703;BME280;2876;51.738;10.050;2023-04-01T05:31:25;97324.56;;;10.07;97.82
5703;BME280;2876;51.738;10.050;2023-04-01T05:37:27;97337.94;;;10.07;98.24
5703;BME280;2876;51.738;10.050;2023-04-01T05:43:29;97332.50;;;10.02;98.23
5703;BME280;2876;51.738;10.050;2023-04-01T05:49:33;97336.41;;;10.11;97.57
5703;BME280;2876;51.738;10.050;2023-04-01T05:55:36;97332.59;;;10.24;97.17
5703;BME280;2876;51.738;10.050;2023-04-01T06:01:39;97334.81;;;10.49;95.17
5703;BME280;2876;51.738;10.050;2023-04-01T06:07:41;97337.94;;;10.63;95.52
5703;BME280;2876;51.738;10.050;2023-04-01T06:14:11;97347.97;;;10.95;93.26
5703;BME280;2876;51.738;10.050;2023-04-01T06:20:25;97349.19;;;11.09;92.63
5703;BME280;2876;51.738;10.050;2023-04-01T06:26:37;97353.00;;;11.40;92.04
5703;BME280;2876;51.738;10.050;2023-04-01T06:33:29;97362.78;;;11.24;92.18
5703;BME280;2876;51.738;10.050;2023-04-01T06:40:18;97357.94;;;11.26;91.86
5703;BME280;2876;51.738;10.050;2023-04-01T06:53:41;97360.00;;;11.41;91.88
5703;BME280;2876;51.738;10.050;2023-04-01T06:59:49;97357.25;;;11.63;90.66
5703;BME280;2876;51.738;10.050;2023-04-01T07:05:54;97372.78;;;11.61;89.20
5703;BME280;2876;51.738;10.050;2023-04-01T07:12:05;97383.56;;;11.66;89.27
5703;BME280;2876;51.738;10.050;2023-04-01T07:18:28;97372.78;;;11.61;88.05
5703;BME280;2876;51.738;10.050;2023-04-01T07:24:39;97372.88;;;11.71;87.26
5703;BME280;2876;51.738;10.050;2023-04-01T07:44:11;97392.34;;;12.15;85.76
5703;BME280;2876;51.738;10.050;2023-04-01T08:23:21;97421.75;;;12.27;85.03
5703;BME280;2876;51.738;10.050;2023-04-01T08:29:59;97420.94;;;12.27;84.83
5703;BME280;2876;51.738;10.050;2023-04-01T08:36:15;97429.19;;;12.57;84.38
5703;BME280;2876;51.738;10.050;2023-04-01T08:43:22;97429.50;;;12.66;84.92
5703;BME280;2876;51.738;10.050;2023-04-01T09:02:58;97439.72;;;12.64;85.30
5703;BME280;2876;51.738;10.050;2023-04-01T09:15:50;97454.88;;;12.80;86.32
5703;BME280;2876;51.738;10.050;2023-04-01T09:41:31;97467.31;;;12.91;87.15
5703;BME280;2876;51.738;10.050;2023-04-01T09:47:55;97481.97;;;13.16;85.83
5703;BME280;2876;51.738;10.050;2023-04-01T09:54:32;97471.88;;;12.86;87.48
5703;BME280;2876;51.738;10.050;2023-04-01T10:08:01;97483.56;;;13.12;86.39
5703;BME280;2876;51.738;10.050;2023-04-01T10:20:46;97491.09;;;13.10;85.24
5703;BME280;2876;51.738;10.050;2023-04-01T11:33:04;97503.63;;;13.31;87.87
5703;BME280;2876;51.738;10.050;2023-04-01T11:45:48;97507.34;;;12.78;91.84
5703;BME280;2876;51.738;10.050;2023-04-01T12:38:25;97547.91;;;14.69;82.03
5703;BME280;2876;51.738;10.050;2023-04-01T13:17:20;97582.72;;;13.67;82.46
5703;BME280;2876;51.738;10.050;2023-04-01T13:23:50;97584.47;;;13.04;81.82
5703;BME280;2876;51.738;10.050;2023-04-01T13:30:30;97587.28;;;12.50;86.05
5703;BME280;2876;51.738;10.050;2023-04-01T13:49:50;97601.59;;;13.73;86.08
5703;BME280;2876;51.738;10.050;2023-04-01T14:02:57;97616.50;;;13.90;84.83
5703;BME280;2876;51.738;10.050;2023-04-01T14:09:41;97620.34;;;14.10;83.57
5703;BME280;2876;51.738;10.050;2023-04-01T14:41:47;97649.56;;;13.33;88.77
5703;BME280;2876;51.738;10.050;2023-04-01T14:48:25;97654.16;;;13.33;89.86
5703;BME280;2876;51.738;10.050;2023-04-01T14:54:36;97663.63;;;13.35;90.06
5703;BME280;2876;51.738;10.050;2023-04-01T15:26:28;97683.44;;;13.24;92.18
5703;BME280;2876;51.738;10.050;2023-04-01T15:33:59;97697.50;;;13.31;92.37
5703;BME280;2876;51.738;10.050;2023-04-01T15:52:53;97723.81;;;12.70;90.13
5703;BME280;2876;51.738;10.050;2023-04-01T16:06:11;97743.88;;;12.13;93.60
5703;BME280;2876;51.738;10.050;2023-04-01T16:33:05;97776.53;;;11.72;92.61
5703;BME280;2876;51.738;10.050;2023-04-01T16:39:43;97786.31;;;11.61;92.58
5703;BME280;2876;51.738;10.050;2023-04-01T16:53:09;97804.34;;;11.49;91.50
5703;BME280;2876;51.738;10.050;2023-04-01T17:05:12;97820.94;;;11.29;92.93
5703;BME280;2876;51.738;10.050;2023-04-01T17:11:56;97827.38;;;11.28;94.28
5703;BME280;2876;51.738;10.050;2023-04-01T17:37:45;97878.94;;;10.89;98.00
5703;BME280;2876;51.738;10.050;2023-04-01T17:44:25;97885.63;;;10.87;98.23
5703;BME280;2876;51.738;10.050;2023-04-01T17:51:08;97891.91;;;10.81;98.53
5703;BME280;2876;51.738;10.050;2023-04-01T18:10:29;97921.69;;;10.56;99.78
5703;BME280;2876;51.738;10.050;2023-04-01T18:36:07;97974.59;;;10.49;100.00
5703;BME280;2876;51.738;10.050;2023-04-01T18:49:14;98004.19;;;10.42;100.00
5703;BME280;2876;51.738;10.050;2023-04-01T18:55:42;98018.91;;;10.51;100.00
5703;BME280;2876;51.738;10.050;2023-04-01T19:08:33;98041.41;;;10.20;100.00
5703;BME280;2876;51.738;10.050;2023-04-01T19:21:16;98073.88;;;9.82;99.38
5703;BME280;2876;51.738;10.050;2023-04-01T19:27:46;98082.28;;;9.85;98.27
5703;BME280;2876;51.738;10.050;2023-04-01T19:34:59;98081.94;;;9.63;98.04
5703;BME280;2876;51.738;10.050;2023-04-01T19:40:57;98103.38;;;9.45;99.39
5703;BME280;2876;51.738;10.050;2023-04-01T20:07:04;98163.44;;;8.99;99.65
5703;BME280;2876;51.738;10.050;2023-04-01T20:13:19;98175.78;;;8.75;100.00
5703;BME280;2876;51.738;10.050;2023-04-01T20:26:01;98206.56;;;8.84;97.78
5703;BME280;2876;51.738;10.050;2023-04-01T20:39:26;98224.31;;;8.41;98.35
5703;BME280;2876;51.738;10.050;2023-04-01T20:45:48;98233.16;;;8.28;98.45
5703;BME280;2876;51.738;10.050;2023-04-01T21:05:30;98267.53;;;8.11;97.05
5703;BME280;2876;51.738;10.050;2023-04-01T21:44:36;98344.19;;;7.64;96.27
5703;BME280;2876;51.738;10.050;2023-04-01T22:16:46;98413.94;;;7.41;94.29
5703;BME280;2876;51.738;10.050;2023-04-01T22:23:26;98421.50;;;7.31;94.83
5703;BME280;2876;51.738;10.050;2023-04-01T22:42:46;98458.50;;;6.99;94.53
5703;BME280;2876;51.738;10.050;2023-04-01T22:55:21;98493.63;;;6.75;95.28
5703;BME280;2876;51.738;10.050;2023-04-01T23:01:30;98498.84;;;6.90;95.00
5703;BME280;2876;51.738;10.050;2023-04-01T23:32:40;98555.84;;;6.60;95.25
5703;BME280;2876;51.738;10.050;2023-04-01T23:38:43;98570.00;;;6.61;94.64
5703;BME280;2876;51.738;10.050;2023-04-01T23:44:52;98584.25;;;6.53;95.13
5703;BME280;2876;51.738;10.050;2023-04-01T23:50:56;98602.28;;;6.51;94.40
5703;BME280;2876;51.738;10.050;2023-04-01T23:56:59;98605.84;;;6.37;94.64
